createdAt,value
2019-05-13T00:00:49.138Z,10.10
2019-05-13T00:03:18.445Z,10.10
2019-05-13T00:05:47.781Z,10.10
2019-05-13T00:08:17.177Z,10.10
2019-05-13T00:10:46.575Z,10.00
2019-05-13T00:13:15.894Z,10.00
2019-05-13T00:15:45.234Z,10.00
2019-05-13T00:18:14.662Z,10.00
2019-05-13T00:20:44.408Z,9.90
2019-05-13T00:23:14.277Z,9.90
2019-05-13T00:25:44.552Z,9.90
2019-05-13T00:28:14.577Z,9.90
2019-05-13T00:30:44.660Z,9.80
2019-05-13T00:33:14.390Z,9.80
2019-05-13T00:35:44.316Z,9.80
2019-05-13T00:38:14.215Z,9.80
2019-05-13T00:40:44.380Z,9.70
2019-05-13T00:43:14.429Z,9.70
2019-05-13T00:45:45.097Z,9.70
2019-05-13T00:48:14.573Z,9.70
2019-05-13T00:50:44.425Z,9.60
2019-05-13T00:53:13.900Z,9.60
2019-05-13T00:55:44.442Z,9.60
2019-05-13T00:58:15.084Z,9.60
2019-05-13T01:00:44.791Z,9.50
2019-05-13T01:03:15.150Z,9.60
2019-05-13T01:05:44.755Z,9.50
2019-05-13T01:08:14.753Z,9.50
2019-05-13T01:10:45.181Z,9.50
2019-05-13T01:13:14.665Z,9.50
2019-05-13T01:15:44.454Z,9.50
2019-05-13T01:18:14.351Z,9.50
2019-05-13T01:20:44.071Z,9.50
2019-05-13T01:23:14.180Z,9.50
2019-05-13T01:25:44.437Z,9.50
2019-05-13T01:28:14.099Z,9.50
2019-05-13T01:30:44.054Z,9.50
2019-05-13T01:33:14.651Z,9.50
2019-05-13T01:35:44.734Z,9.50
2019-05-13T01:38:14.131Z,9.50
2019-05-13T01:40:44.127Z,9.50
2019-05-13T01:43:14.411Z,9.40
2019-05-13T01:45:44.344Z,9.40
2019-05-13T01:48:14.307Z,9.40
2019-05-13T01:50:44.505Z,9.50
2019-05-13T01:53:15.170Z,9.40
2019-05-13T01:55:44.558Z,9.40
2019-05-13T01:58:14.589Z,9.40
2019-05-13T02:00:44.624Z,9.40
2019-05-13T02:03:14.687Z,9.40
2019-05-13T02:05:45.076Z,9.40
2019-05-13T02:08:14.633Z,9.40
2019-05-13T02:10:54.286Z,9.40
2019-05-13T02:13:24.744Z,9.30
2019-05-13T02:15:55.453Z,9.30
2019-05-13T02:18:25.053Z,9.30
2019-05-13T02:20:56.023Z,9.30
2019-05-13T02:23:25.619Z,9.30
2019-05-13T02:25:56.023Z,9.20
2019-05-13T02:28:25.426Z,9.20
2019-05-13T02:30:56.862Z,9.20
2019-05-13T02:33:25.780Z,9.20
2019-05-13T02:35:55.159Z,9.20
2019-05-13T02:38:30.050Z,9.20
2019-05-13T02:40:55.563Z,9.20
2019-05-13T02:43:24.913Z,9.20
2019-05-13T02:45:55.431Z,9.20
2019-05-13T02:48:25.782Z,9.10
2019-05-13T02:50:55.146Z,9.10
2019-05-13T02:53:24.758Z,9.10
2019-05-13T02:55:54.562Z,9.10
2019-05-13T02:58:25.121Z,9.10
2019-05-13T03:00:54.931Z,9.10
2019-05-13T03:03:24.335Z,9.10
2019-05-13T03:05:54.034Z,9.00
2019-05-13T03:08:39.615Z,9.00
2019-05-13T03:10:55.421Z,9.00
2019-05-13T03:13:24.821Z,9.00
2019-05-13T03:15:58.470Z,9.00
2019-05-13T03:18:27.804Z,9.00
2019-05-13T03:20:57.113Z,9.00
2019-05-13T03:23:26.443Z,8.90
2019-05-13T03:25:55.751Z,8.90
2019-05-13T03:28:25.085Z,8.90
2019-05-13T03:30:56.440Z,8.90
2019-05-13T03:33:27.914Z,8.90
2019-05-13T03:35:56.835Z,8.90
2019-05-13T03:38:26.825Z,8.80
2019-05-13T03:40:57.982Z,8.80
2019-05-13T03:43:32.260Z,8.80
2019-05-13T03:46:03.312Z,8.80
2019-05-13T03:48:34.792Z,8.70
2019-05-13T03:51:05.151Z,8.70
2019-05-13T03:53:34.468Z,8.70
2019-05-13T03:56:04.514Z,8.70
2019-05-13T03:58:34.015Z,8.60
2019-05-13T04:01:03.407Z,8.60
2019-05-13T04:03:33.349Z,8.60
2019-05-13T04:06:03.753Z,8.60
2019-05-13T04:08:33.403Z,8.60
2019-05-13T04:11:03.192Z,8.50
2019-05-13T04:13:33.758Z,8.50
2019-05-13T04:16:04.299Z,8.50
2019-05-13T04:18:33.979Z,8.50
2019-05-13T04:21:03.495Z,8.50
2019-05-13T04:23:33.003Z,8.50
2019-05-13T04:26:03.237Z,8.50
2019-05-13T04:28:33.382Z,8.50
2019-05-13T04:31:03.635Z,8.50
2019-05-13T04:33:33.688Z,8.50
2019-05-13T04:36:03.269Z,8.50
2019-05-13T04:38:33.440Z,8.50
2019-05-13T04:41:03.829Z,8.50
2019-05-13T04:43:34.650Z,8.60
2019-05-13T04:46:04.549Z,8.60
2019-05-13T04:48:34.275Z,8.60
2019-05-13T04:51:03.691Z,8.60
2019-05-13T04:53:33.719Z,8.60
2019-05-13T04:56:03.626Z,8.70
2019-05-13T04:58:33.046Z,8.70
2019-05-13T05:01:24.181Z,8.70
2019-05-13T05:04:11.716Z,8.80
2019-05-13T05:06:45.883Z,8.80
2019-05-13T05:09:22.456Z,8.80
2019-05-13T05:12:16.637Z,8.90
2019-05-13T05:15:08.230Z,8.90
2019-05-13T05:18:02.845Z,8.90
2019-05-13T05:20:41.700Z,9.00
2019-05-13T05:23:31.780Z,9.00
2019-05-13T05:26:21.971Z,9.00
2019-05-13T05:29:02.786Z,9.10
2019-05-13T05:31:41.500Z,9.10
2019-05-13T05:34:47.690Z,9.20
2019-05-13T05:37:25.548Z,9.20
2019-05-13T05:39:57.686Z,9.30
2019-05-13T05:42:29.401Z,9.30
2019-05-13T05:45:02.837Z,9.40
2019-05-13T05:47:33.253Z,9.50
2019-05-13T05:50:03.506Z,9.50
2019-05-13T05:52:34.531Z,9.60
2019-05-13T05:55:04.589Z,9.70
2019-05-13T05:57:35.610Z,9.80
2019-05-13T06:00:07.382Z,9.90
2019-05-13T06:02:42.291Z,10.00
2019-05-13T06:05:12.497Z,10.10
2019-05-13T06:07:42.327Z,10.20
2019-05-13T06:10:15.027Z,10.30
2019-05-13T06:12:45.686Z,10.50
2019-05-13T06:15:15.253Z,10.60
2019-05-13T06:17:44.578Z,10.70
2019-05-13T06:20:14.233Z,10.80
2019-05-13T06:22:43.567Z,11.00
2019-05-13T06:25:14.428Z,11.20
2019-05-13T06:27:44.302Z,11.40
2019-05-13T06:30:14.746Z,11.50
2019-05-13T06:32:44.210Z,11.60
2019-05-13T06:35:13.606Z,11.70
2019-05-13T06:37:43.081Z,11.90
2019-05-13T06:40:12.733Z,12.10
2019-05-13T06:42:42.066Z,12.30
2019-05-13T06:45:12.636Z,12.60
2019-05-13T06:47:41.998Z,12.90
2019-05-13T06:50:11.825Z,13.10
2019-05-13T06:52:42.495Z,13.40
2019-05-13T06:55:12.250Z,13.70
2019-05-13T06:57:42.228Z,13.90
2019-05-13T07:00:12.308Z,14.10
2019-05-13T07:02:42.732Z,14.30
2019-05-13T07:05:12.694Z,14.50
2019-05-13T07:07:42.511Z,14.70
2019-05-13T07:10:12.698Z,14.90
2019-05-13T07:12:42.290Z,15.00
2019-05-13T07:15:13.187Z,15.20
2019-05-13T07:17:42.518Z,15.40
2019-05-13T07:20:13.544Z,15.60
2019-05-13T07:22:42.866Z,15.80
2019-05-13T07:25:12.327Z,16.00
2019-05-13T07:27:42.446Z,16.20
2019-05-13T07:30:12.503Z,16.40
2019-05-13T07:32:42.878Z,16.70
2019-05-13T07:35:14.214Z,16.80
2019-05-13T07:37:43.543Z,17.00
2019-05-13T07:40:14.166Z,17.20
2019-05-13T07:42:43.497Z,17.30
2019-05-13T07:45:12.881Z,17.40
2019-05-13T07:47:42.220Z,17.50
2019-05-13T07:50:13.250Z,17.60
2019-05-13T07:52:42.657Z,17.70
2019-05-13T07:55:13.598Z,17.80
2019-05-13T07:57:42.943Z,17.90
2019-05-13T08:00:12.789Z,18.10
2019-05-13T08:02:42.127Z,18.20
2019-05-13T08:05:12.163Z,18.40
2019-05-13T08:07:42.769Z,18.50
2019-05-13T08:10:12.531Z,18.60
2019-05-13T08:12:41.857Z,18.70
2019-05-13T08:15:12.101Z,18.80
2019-05-13T08:17:47.310Z,18.90
2019-05-13T08:20:15.034Z,19.00
2019-05-13T08:22:44.452Z,19.10
2019-05-13T08:25:14.033Z,19.30
2019-05-13T08:27:44.380Z,19.40
2019-05-13T08:30:17.752Z,19.50
2019-05-13T08:32:45.329Z,19.60
2019-05-13T08:35:14.781Z,19.70
2019-05-13T08:37:44.140Z,19.80
2019-05-13T08:40:15.925Z,19.90
2019-05-13T08:42:45.346Z,20.00
2019-05-13T08:45:14.810Z,20.10
2019-05-13T08:47:44.178Z,20.20
2019-05-13T08:50:14.070Z,20.30
2019-05-13T08:52:43.426Z,20.40
2019-05-13T08:55:15.925Z,20.50
2019-05-13T08:57:44.653Z,20.50
2019-05-13T09:00:16.914Z,20.70
2019-05-13T09:02:46.261Z,20.80
2019-05-13T09:05:16.722Z,20.90
2019-05-13T09:07:47.144Z,21.00
2019-05-13T09:10:17.329Z,21.10
2019-05-13T09:12:46.658Z,21.10
2019-05-13T09:15:15.995Z,21.30
2019-05-13T09:17:45.319Z,21.30
2019-05-13T09:20:14.650Z,21.40
2019-05-13T09:22:43.969Z,21.50
2019-05-13T09:25:13.365Z,21.60
2019-05-13T09:27:42.682Z,21.70
2019-05-13T09:30:13.221Z,21.80
2019-05-13T09:32:42.772Z,21.90
2019-05-13T09:35:13.125Z,22.00
2019-05-13T09:37:43.510Z,22.10
2019-05-13T09:40:13.083Z,22.20
2019-05-13T09:42:50.869Z,22.20
2019-05-13T09:45:13.980Z,22.30
2019-05-13T09:47:44.271Z,22.30
2019-05-13T09:50:28.012Z,22.40
2019-05-13T09:52:44.753Z,22.40
2019-05-13T09:55:26.500Z,22.60
2019-05-13T09:57:45.341Z,22.60
2019-05-13T10:00:15.118Z,22.80
2019-05-13T10:02:44.438Z,22.90
2019-05-13T10:05:14.018Z,23.00
2019-05-13T10:07:43.334Z,23.00
2019-05-13T10:10:13.201Z,23.00
2019-05-13T10:12:42.737Z,22.90
2019-05-13T10:15:12.840Z,22.90
2019-05-13T10:17:42.950Z,22.90
2019-05-13T10:20:13.282Z,22.90
2019-05-13T10:22:42.769Z,22.90
2019-05-13T10:25:15.175Z,22.90
2019-05-13T10:27:44.662Z,23.00
2019-05-13T10:30:14.402Z,23.10
2019-05-13T10:32:43.797Z,23.20
2019-05-13T10:35:15.142Z,23.30
2019-05-13T10:37:45.001Z,23.40
2019-05-13T10:40:14.678Z,23.40
2019-05-13T10:42:43.994Z,23.50
2019-05-13T10:45:13.492Z,23.50
2019-05-13T10:47:42.817Z,23.50
2019-05-13T10:50:12.485Z,23.50
2019-05-13T10:52:42.688Z,23.50
2019-05-13T10:55:13.001Z,23.50
2019-05-13T10:57:42.560Z,23.50
2019-05-13T11:00:12.606Z,23.50
2019-05-13T11:02:42.485Z,23.50
2019-05-13T11:05:12.558Z,23.50
2019-05-13T11:07:43.020Z,23.50
2019-05-13T11:10:13.556Z,23.50
2019-05-13T11:12:42.979Z,23.50
2019-05-13T11:15:12.482Z,23.50
2019-05-13T11:17:42.817Z,23.60
2019-05-13T11:20:12.611Z,23.60
2019-05-13T11:22:42.125Z,23.60
2019-05-13T11:25:12.318Z,23.40
2019-05-13T11:27:42.330Z,23.20
2019-05-13T11:30:12.149Z,23.00
2019-05-13T11:32:42.692Z,22.70
2019-05-13T11:35:13.151Z,22.40
2019-05-13T11:37:43.598Z,22.20
2019-05-13T11:40:13.887Z,21.90
2019-05-13T11:42:43.270Z,21.70
2019-05-13T11:45:13.938Z,21.50
2019-05-13T11:47:44.834Z,21.30
2019-05-13T11:50:14.654Z,21.10
2019-05-13T11:52:44.376Z,20.90
2019-05-13T11:55:15.121Z,20.80
2019-05-13T11:57:44.670Z,20.60
2019-05-13T12:00:14.578Z,20.50
2019-05-13T12:02:50.456Z,20.40
2019-05-13T12:05:15.269Z,20.30
2019-05-13T12:07:44.605Z,20.20
2019-05-13T12:10:15.531Z,20.10
2019-05-13T12:12:44.986Z,20.00
2019-05-13T12:15:33.495Z,19.90
2019-05-13T12:17:46.027Z,19.80
2019-05-13T12:20:15.346Z,19.80
2019-05-13T12:22:45.032Z,19.70
2019-05-13T12:25:14.449Z,19.60
2019-05-13T12:27:43.781Z,19.60
2019-05-13T12:30:13.102Z,19.50
2019-05-13T12:32:43.739Z,19.50
2019-05-13T12:35:13.666Z,19.40
2019-05-13T12:37:43.287Z,19.30
2019-05-13T12:40:13.953Z,19.30
2019-05-13T12:42:47.048Z,19.20
2019-05-13T12:45:14.784Z,19.20
2019-05-13T12:47:44.095Z,19.10
2019-05-13T12:50:14.140Z,19.10
2019-05-13T12:52:43.976Z,19.10
2019-05-13T12:55:14.189Z,19.10
2019-05-13T12:57:43.706Z,19.00
2019-05-13T13:00:14.445Z,19.00
2019-05-13T13:02:50.470Z,19.00
2019-05-13T13:05:20.356Z,19.00
2019-05-13T13:08:12.025Z,19.00
2019-05-13T13:10:18.025Z,19.00
2019-05-13T13:12:47.367Z,19.00
2019-05-13T13:15:35.870Z,19.00
2019-05-13T13:17:48.527Z,19.00
2019-05-13T13:20:17.953Z,19.00
2019-05-13T13:22:47.362Z,19.00
2019-05-13T13:25:16.822Z,19.00
2019-05-13T13:28:08.608Z,19.00
2019-05-13T13:30:17.718Z,19.00
2019-05-13T13:32:47.325Z,19.00
2019-05-13T13:35:16.817Z,18.90
2019-05-13T13:37:46.350Z,18.90
2019-05-13T13:40:24.528Z,18.90
2019-05-13T13:42:47.002Z,18.90
2019-05-13T13:45:16.557Z,18.90
2019-05-13T13:47:46.070Z,18.90
2019-05-13T13:50:16.695Z,18.90
2019-05-13T13:52:46.061Z,18.90
2019-05-13T13:55:16.388Z,18.90
2019-05-13T13:57:45.966Z,18.90
2019-05-13T14:00:32.967Z,19.00
2019-05-13T14:02:47.953Z,19.00
2019-05-13T14:05:17.354Z,18.90
2019-05-13T14:07:46.745Z,19.00
2019-05-13T14:10:16.318Z,19.00
2019-05-13T14:12:45.649Z,18.90
2019-05-13T14:15:15.277Z,18.90
2019-05-13T14:17:44.606Z,18.90
2019-05-13T14:20:14.751Z,18.90
2019-05-13T14:22:44.141Z,18.90
2019-05-13T14:25:14.117Z,18.90
2019-05-13T14:27:43.435Z,18.90
2019-05-13T14:30:13.105Z,18.90
2019-05-13T14:32:42.606Z,18.90
2019-05-13T14:35:12.496Z,18.90
2019-05-13T14:37:41.966Z,18.90
2019-05-13T14:40:12.257Z,18.90
2019-05-13T14:42:42.619Z,18.90
2019-05-13T14:45:12.731Z,18.90
2019-05-13T14:47:42.054Z,18.90
2019-05-13T14:50:12.124Z,18.90
2019-05-13T14:52:41.840Z,18.90
2019-05-13T14:55:11.593Z,18.90
2019-05-13T14:57:41.885Z,18.90
2019-05-13T15:00:13.073Z,18.90
2019-05-13T15:02:42.565Z,18.90
2019-05-13T15:05:12.216Z,18.90
2019-05-13T15:07:42.265Z,18.90
2019-05-13T15:10:12.282Z,18.90
2019-05-13T15:12:41.733Z,18.90
2019-05-13T15:15:12.841Z,18.90
2019-05-13T15:17:42.690Z,18.90
2019-05-13T15:20:12.510Z,18.90
2019-05-13T15:22:42.412Z,18.90
2019-05-13T15:25:12.471Z,18.90
2019-05-13T15:27:42.180Z,18.90
2019-05-13T15:30:17.425Z,18.90
2019-05-13T15:32:43.253Z,18.80
2019-05-13T15:35:13.397Z,18.90
2019-05-13T15:37:42.919Z,18.90
2019-05-13T15:40:12.754Z,18.90
2019-05-13T15:42:43.439Z,18.80
2019-05-13T15:45:13.113Z,18.80
2019-05-13T15:47:42.501Z,18.90
2019-05-13T15:50:12.417Z,18.90
2019-05-13T15:52:43.164Z,18.80
2019-05-13T15:55:13.280Z,18.90
2019-05-13T15:57:43.010Z,18.80
2019-05-13T16:00:12.898Z,18.90
2019-05-13T16:02:42.419Z,18.80
2019-05-13T16:05:12.303Z,18.80
2019-05-13T16:07:42.028Z,18.80
2019-05-13T16:10:12.290Z,18.90
2019-05-13T16:12:41.601Z,18.80
2019-05-13T16:15:15.508Z,18.80
2019-05-13T16:17:44.916Z,18.80
2019-05-13T16:20:13.858Z,18.80
2019-05-13T16:22:43.256Z,18.80
2019-05-13T16:25:14.506Z,18.80
2019-05-13T16:27:43.837Z,18.70
2019-05-13T16:30:13.789Z,18.70
2019-05-13T16:32:43.183Z,18.80
2019-05-13T16:35:13.576Z,18.70
2019-05-13T16:37:43.146Z,18.70
2019-05-13T16:40:14.133Z,18.70
2019-05-13T16:42:43.539Z,18.70
2019-05-13T16:45:13.279Z,18.70
2019-05-13T16:47:56.959Z,18.60
2019-05-13T16:50:14.265Z,18.60
2019-05-13T16:52:43.610Z,18.60
2019-05-13T16:55:13.974Z,18.60
2019-05-13T16:57:43.299Z,18.60
2019-05-13T17:00:13.153Z,18.50
2019-05-13T17:02:42.492Z,18.50
2019-05-13T17:05:13.337Z,18.50
2019-05-13T17:07:42.677Z,18.50
2019-05-13T17:10:13.834Z,18.50
2019-05-13T17:12:43.310Z,18.50
2019-05-13T17:15:13.372Z,18.50
2019-05-13T17:17:42.695Z,18.40
2019-05-13T17:20:12.846Z,18.40
2019-05-13T17:22:42.501Z,18.40
2019-05-13T17:25:12.817Z,18.40
2019-05-13T17:27:42.401Z,18.40
2019-05-13T17:30:13.089Z,18.40
2019-05-13T17:32:42.414Z,18.30
2019-05-13T17:35:12.289Z,18.30
2019-05-13T17:37:42.200Z,18.30
2019-05-13T17:40:12.110Z,18.30
2019-05-13T17:42:41.839Z,18.20
2019-05-13T17:45:11.559Z,18.20
2019-05-13T17:47:41.805Z,18.20
2019-05-13T17:50:12.053Z,18.20
2019-05-13T17:52:41.457Z,18.10
2019-05-13T17:55:11.884Z,18.10
2019-05-13T17:57:41.571Z,18.10
2019-05-13T18:00:12.298Z,18.10
2019-05-13T18:02:42.112Z,18.00
2019-05-13T18:05:12.749Z,18.00
2019-05-13T18:07:42.203Z,18.00
2019-05-13T18:10:14.222Z,17.90
2019-05-13T18:12:42.895Z,17.90
2019-05-13T18:15:12.455Z,17.90
2019-05-13T18:17:41.954Z,17.80
2019-05-13T18:20:11.725Z,17.80
2019-05-13T18:22:41.987Z,17.80
2019-05-13T18:25:12.232Z,17.70
2019-05-13T18:27:42.007Z,17.70
2019-05-13T18:30:11.688Z,17.60
2019-05-13T18:32:41.071Z,17.60
2019-05-13T18:35:12.255Z,17.50
2019-05-13T18:37:42.068Z,17.50
2019-05-13T18:40:11.898Z,17.40
2019-05-13T18:42:42.191Z,17.40
2019-05-13T18:45:12.410Z,17.40
2019-05-13T18:47:41.778Z,17.30
2019-05-13T18:50:11.734Z,17.30
2019-05-13T18:52:41.997Z,17.20
2019-05-13T18:55:13.254Z,17.20
2019-05-13T18:57:42.730Z,17.10
2019-05-13T19:00:13.188Z,17.00
2019-05-13T19:02:42.596Z,17.00
2019-05-13T19:05:12.120Z,17.00
2019-05-13T19:07:41.946Z,16.90
2019-05-13T19:10:11.714Z,16.80
2019-05-13T19:12:42.002Z,16.80
2019-05-13T19:15:12.081Z,16.70
2019-05-13T19:17:41.646Z,16.70
2019-05-13T19:20:11.778Z,16.60
2019-05-13T19:22:41.478Z,16.60
2019-05-13T19:25:11.925Z,16.50
2019-05-13T19:27:41.597Z,16.40
2019-05-13T19:30:12.179Z,16.40
2019-05-13T19:32:41.947Z,16.30
2019-05-13T19:35:11.912Z,16.20
2019-05-13T19:37:42.480Z,16.20
2019-05-13T19:40:13.058Z,16.10
2019-05-13T19:42:42.773Z,16.00
2019-05-13T19:45:13.870Z,15.90
2019-05-13T19:47:43.277Z,15.90
2019-05-13T19:50:12.734Z,15.80
2019-05-13T19:52:42.075Z,15.70
2019-05-13T19:55:12.063Z,15.60
2019-05-13T19:57:42.567Z,15.50
2019-05-13T20:00:14.160Z,15.40
2019-05-13T20:02:43.446Z,15.40
2019-05-13T20:05:12.907Z,15.30
2019-05-13T20:07:42.250Z,15.20
2019-05-13T20:10:12.041Z,15.10
2019-05-13T20:12:41.957Z,15.10
2019-05-13T20:15:12.047Z,15.00
2019-05-13T20:17:41.734Z,14.90
2019-05-13T20:20:12.376Z,14.80
2019-05-13T20:22:42.292Z,14.80
2019-05-13T20:25:13.169Z,14.70
2019-05-13T20:27:42.749Z,14.60
2019-05-13T20:30:12.232Z,14.50
2019-05-13T20:32:41.559Z,14.40
2019-05-13T20:35:11.558Z,14.40
2019-05-13T20:37:42.014Z,14.30
2019-05-13T20:40:11.608Z,14.30
2019-05-13T20:42:41.506Z,14.20
2019-05-13T20:45:11.580Z,14.10
2019-05-13T20:47:41.987Z,14.10
2019-05-13T20:50:12.514Z,14.10
2019-05-13T20:52:42.199Z,14.00
2019-05-13T20:55:11.898Z,13.90
2019-05-13T20:57:41.728Z,13.90
2019-05-13T21:00:11.784Z,13.80
2019-05-13T21:02:41.819Z,13.80
2019-05-13T21:05:12.126Z,13.70
2019-05-13T21:07:41.871Z,13.70
2019-05-13T21:10:12.072Z,13.60
2019-05-13T21:12:42.690Z,13.50
2019-05-13T21:15:12.946Z,13.50
2019-05-13T21:17:42.664Z,13.40
2019-05-13T21:20:19.693Z,13.40
2019-05-13T21:22:43.318Z,13.30
2019-05-13T21:25:12.885Z,13.30
2019-05-13T21:27:42.267Z,13.20
2019-05-13T21:30:12.270Z,13.20
2019-05-13T21:32:41.590Z,13.10
2019-05-13T21:35:11.996Z,13.10
2019-05-13T21:37:41.465Z,13.10
2019-05-13T21:40:11.378Z,13.00
2019-05-13T21:42:41.833Z,13.00
2019-05-13T21:45:11.629Z,13.00
2019-05-13T21:47:40.952Z,12.90
2019-05-13T21:50:11.649Z,12.90
2019-05-13T21:52:41.815Z,12.90
2019-05-13T21:55:11.563Z,12.80
2019-05-13T21:57:41.468Z,12.80
2019-05-13T22:00:16.538Z,12.80
2019-05-13T22:02:47.552Z,12.70
2019-05-13T22:05:17.126Z,12.70
2019-05-13T22:07:46.445Z,12.70
2019-05-13T22:10:16.017Z,12.60
2019-05-13T22:12:45.331Z,12.60
2019-05-13T22:15:14.934Z,12.50
2019-05-13T22:17:44.250Z,12.50
2019-05-13T22:20:14.234Z,12.50
2019-05-13T22:22:43.549Z,12.40
2019-05-13T22:25:13.122Z,12.40
2019-05-13T22:27:42.434Z,12.30
2019-05-13T22:30:12.114Z,12.30
2019-05-13T22:32:41.828Z,12.30
2019-05-13T22:35:11.367Z,12.30
2019-05-13T22:37:40.750Z,12.20
2019-05-13T22:40:11.292Z,12.20
2019-05-13T22:42:41.499Z,12.20
2019-05-13T22:45:11.652Z,12.20
2019-05-13T22:47:41.851Z,12.20
2019-05-13T22:50:11.851Z,12.20
2019-05-13T22:52:41.843Z,12.20
2019-05-13T22:55:11.743Z,12.20
2019-05-13T22:57:42.103Z,12.20
2019-05-13T23:00:12.950Z,12.20
2019-05-13T23:02:43.895Z,12.20
2019-05-13T23:05:13.476Z,12.20
2019-05-13T23:07:42.795Z,12.10
2019-05-13T23:10:12.297Z,12.10
2019-05-13T23:12:42.077Z,12.10
2019-05-13T23:15:12.043Z,12.10
2019-05-13T23:17:41.668Z,12.10
2019-05-13T23:20:11.552Z,12.10
2019-05-13T23:22:41.576Z,12.10
2019-05-13T23:25:12.140Z,12.00
2019-05-13T23:27:41.696Z,12.00
2019-05-13T23:30:11.759Z,11.90
2019-05-13T23:32:41.221Z,11.90
2019-05-13T23:35:11.186Z,11.90
2019-05-13T23:37:41.667Z,11.80
2019-05-13T23:40:12.277Z,11.90
2019-05-13T23:42:41.598Z,11.80
2019-05-13T23:45:11.490Z,11.80
2019-05-13T23:47:41.722Z,11.80
2019-05-13T23:50:12.442Z,11.80
2019-05-13T23:52:42.056Z,11.70
2019-05-13T23:55:11.851Z,11.70
2019-05-13T23:57:42.115Z,11.70
